createdAt,value
2022-07-25T00:00:51.579Z,16.10
2022-07-25T00:03:23.808Z,15.83
2022-07-25T00:06:01.673Z,16.80
2022-07-25T00:08:39.107Z,16.80
2022-07-25T00:11:17.799Z,16.70
2022-07-25T00:13:53.250Z,15.20
2022-07-25T00:16:28.528Z,17.40
2022-07-25T00:19:03.413Z,16.93
2022-07-25T00:21:42.045Z,17.70
2022-07-25T00:24:21.300Z,17.87
2022-07-25T00:27:02.241Z,16.87
2022-07-25T00:29:41.853Z,17.37
2022-07-25T00:32:42.314Z,16.47
2022-07-25T00:35:22.254Z,17.33
2022-07-25T00:38:22.495Z,16.60
2022-07-25T00:41:44.357Z,16.77
2022-07-25T00:44:51.450Z,16.50
2022-07-25T00:48:09.195Z,16.83
2022-07-25T00:50:47.020Z,16.10
2022-07-25T00:53:28.384Z,17.20
2022-07-25T00:56:02.580Z,17.00
2022-07-25T00:58:37.750Z,21.97
2022-07-25T01:01:18.383Z,17.90
2022-07-25T01:03:58.586Z,17.47
2022-07-25T01:06:38.990Z,16.20
2022-07-25T01:09:16.880Z,17.53
2022-07-25T01:11:59.905Z,18.40
2022-07-25T01:14:34.871Z,18.60
2022-07-25T01:17:13.371Z,17.70
2022-07-25T01:19:53.734Z,17.60
2022-07-25T01:25:53.492Z,18.10
2022-07-25T01:32:13.981Z,18.53
2022-07-25T01:38:14.473Z,18.67
2022-07-25T01:44:34.942Z,17.57
2022-07-25T01:47:55.306Z,18.80
2022-07-25T01:51:13.425Z,17.60
2022-07-25T01:56:46.940Z,17.33
2022-07-25T02:02:26.619Z,18.50
2022-07-25T02:05:47.362Z,18.97
2022-07-25T02:09:05.307Z,17.97
2022-07-25T02:11:40.511Z,18.67
2022-07-25T02:14:19.652Z,19.80
2022-07-25T02:17:21.039Z,18.27
2022-07-25T02:20:02.101Z,17.03
2022-07-25T02:22:38.299Z,17.77
2022-07-25T02:25:10.521Z,18.20
2022-07-25T02:27:50.634Z,18.70
2022-07-25T02:30:31.126Z,19.47
2022-07-25T02:33:29.865Z,20.47
2022-07-25T02:36:52.378Z,18.77
2022-07-25T02:39:30.013Z,19.23
2022-07-25T02:45:49.318Z,19.97
2022-07-25T02:49:09.868Z,20.20
2022-07-25T02:52:27.529Z,19.73
2022-07-25T02:58:00.387Z,18.77
2022-07-25T03:04:20.881Z,19.43
2022-07-25T03:07:41.132Z,18.83
2022-07-25T03:11:01.430Z,19.10
2022-07-25T03:14:21.633Z,19.33
2022-07-25T03:17:41.969Z,19.73
2022-07-25T03:20:59.223Z,19.77
2022-07-25T03:26:32.839Z,20.87
2022-07-25T03:29:55.762Z,19.63
2022-07-25T03:35:31.454Z,21.13
2022-07-25T03:41:03.142Z,19.53
2022-07-25T03:44:23.710Z,20.40
2022-07-25T03:47:42.208Z,21.23
2022-07-25T03:53:14.338Z,21.97
2022-07-25T03:56:43.421Z,21.23
2022-07-25T04:02:36.531Z,21.80
2022-07-25T04:08:57.719Z,21.33
2022-07-25T04:12:18.435Z,19.93
2022-07-25T04:15:36.455Z,22.33
2022-07-25T04:21:09.174Z,20.40
2022-07-25T04:27:29.480Z,22.60
2022-07-25T04:30:49.898Z,22.43
2022-07-25T04:34:08.759Z,19.40
2022-07-25T04:37:30.240Z,20.50
2022-07-25T04:40:47.613Z,21.13
2022-07-25T04:46:21.924Z,21.13
2022-07-25T04:52:42.317Z,21.20
2022-07-25T04:56:02.962Z,16.30
2022-07-25T04:59:23.421Z,17.87
2022-07-25T05:02:41.423Z,18.43
2022-07-25T05:08:14.456Z,18.87
2022-07-25T05:11:36.509Z,19.90
2022-07-25T05:14:55.969Z,16.63
2022-07-25T05:18:13.252Z,17.70
2022-07-25T05:23:47.340Z,18.17
2022-07-25T05:30:08.387Z,19.33
2022-07-25T05:33:27.217Z,18.50
2022-07-25T05:35:59.188Z,18.00
2022-07-25T05:42:18.920Z,16.97
2022-07-25T05:45:39.468Z,20.47
2022-07-25T05:48:57.170Z,17.57
2022-07-25T05:54:31.419Z,19.60
2022-07-25T05:57:32.086Z,19.60
2022-07-25T06:00:08.309Z,19.20
2022-07-25T06:02:47.478Z,20.47
2022-07-25T06:05:23.711Z,18.30
2022-07-25T06:08:02.569Z,19.97
2022-07-25T06:10:40.421Z,18.47
2022-07-25T06:13:20.767Z,18.80
2022-07-25T06:15:52.796Z,20.93
2022-07-25T06:18:32.679Z,18.10
2022-07-25T06:21:07.832Z,17.10
2022-07-25T06:23:43.013Z,19.37
2022-07-25T06:26:22.236Z,16.47
2022-07-25T06:29:00.044Z,20.03
2022-07-25T06:31:32.718Z,16.80
2022-07-25T06:34:11.003Z,16.10
2022-07-25T06:36:49.463Z,16.70
2022-07-25T06:39:24.074Z,18.33
2022-07-25T06:45:43.917Z,17.63
2022-07-25T06:48:18.563Z,18.07
2022-07-25T06:51:00.034Z,18.60
2022-07-25T06:53:34.658Z,17.77
2022-07-25T06:56:17.690Z,19.10
2022-07-25T06:58:53.256Z,17.03
2022-07-25T07:01:25.681Z,17.57
2022-07-25T07:04:02.433Z,17.27
2022-07-25T07:06:41.797Z,16.83
2022-07-25T07:09:15.865Z,16.90
2022-07-25T07:11:55.718Z,16.93
2022-07-25T07:14:36.054Z,17.97
2022-07-25T07:17:16.282Z,18.93
2022-07-25T07:19:46.491Z,18.23
2022-07-25T07:22:19.155Z,17.43
2022-07-25T07:24:56.199Z,17.63
2022-07-25T07:27:31.570Z,16.70
2022-07-25T07:30:07.054Z,17.77
2022-07-25T07:32:41.397Z,17.90
2022-07-25T07:35:17.507Z,19.67
2022-07-25T07:37:48.809Z,17.30
2022-07-25T07:40:22.820Z,18.70
2022-07-25T07:43:02.307Z,17.97
2022-07-25T07:45:38.105Z,17.00
2022-07-25T07:48:14.039Z,30.13
2022-07-25T07:50:48.600Z,17.30
2022-07-25T07:53:45.742Z,18.07
2022-07-25T07:56:18.837Z,16.17
2022-07-25T07:58:55.788Z,17.17
2022-07-25T08:01:29.167Z,17.30
2022-07-25T08:04:06.730Z,18.47
2022-07-25T08:06:39.277Z,17.93
2022-07-25T08:09:12.565Z,17.50
2022-07-25T08:11:41.232Z,18.07
2022-07-25T08:14:14.216Z,18.97
2022-07-25T08:16:47.462Z,19.10
2022-07-25T08:19:19.693Z,22.53
2022-07-25T08:21:50.839Z,19.80
2022-07-25T08:24:23.949Z,19.40
2022-07-25T08:26:55.195Z,17.63
2022-07-25T08:29:34.413Z,18.07
2022-07-25T08:32:10.729Z,18.50
2022-07-25T08:34:45.004Z,18.37
2022-07-25T08:37:21.221Z,18.00
2022-07-25T08:39:55.366Z,17.60
2022-07-25T08:42:31.370Z,17.60
2022-07-25T08:45:10.744Z,16.53
2022-07-25T08:47:46.539Z,19.40
2022-07-25T08:50:25.652Z,17.80
2022-07-25T08:53:30.242Z,18.50
2022-07-25T08:55:55.907Z,18.00
2022-07-25T08:58:32.214Z,18.60
2022-07-25T09:01:06.129Z,18.00
2022-07-25T09:03:42.576Z,17.97
2022-07-25T09:06:21.664Z,19.03
2022-07-25T09:08:58.284Z,18.90
2022-07-25T09:11:36.408Z,19.33
2022-07-25T09:14:15.256Z,18.03
2022-07-25T09:16:51.808Z,17.07
2022-07-25T09:19:27.620Z,18.23
2022-07-25T09:22:07.022Z,18.37
2022-07-25T09:24:47.862Z,18.20
2022-07-25T09:27:26.804Z,17.97
2022-07-25T09:30:03.444Z,18.60
2022-07-25T09:32:36.532Z,17.80
2022-07-25T09:35:13.720Z,18.17
2022-07-25T09:37:47.001Z,18.70
2022-07-25T09:40:23.653Z,17.30
2022-07-25T09:42:57.101Z,18.63
2022-07-25T09:45:33.924Z,17.77
2022-07-25T09:48:07.392Z,16.40
2022-07-25T09:50:44.120Z,17.00
2022-07-25T09:53:17.447Z,17.03
2022-07-25T09:55:55.157Z,17.87
2022-07-25T09:58:27.490Z,17.27
2022-07-25T10:01:07.535Z,18.07
2022-07-25T10:03:53.027Z,18.10
2022-07-25T10:06:38.995Z,16.83
2022-07-25T10:09:17.531Z,17.60
2022-07-25T10:12:08.716Z,25.60
2022-07-25T10:15:07.896Z,15.90
2022-07-25T10:17:44.819Z,15.10
2022-07-25T10:20:18.224Z,14.37
2022-07-25T10:22:58.605Z,13.80
2022-07-25T10:25:38.268Z,14.00
2022-07-25T10:28:15.305Z,13.93
2022-07-25T10:30:48.427Z,12.70
2022-07-25T10:33:25.384Z,12.40
2022-07-25T10:36:08.515Z,13.10
2022-07-25T10:38:45.432Z,13.83
2022-07-25T10:41:18.824Z,13.37
2022-07-25T10:43:55.697Z,12.90
2022-07-25T10:46:34.988Z,13.83
2022-07-25T10:49:10.935Z,13.27
2022-07-25T10:51:59.569Z,12.73
2022-07-25T10:54:37.070Z,13.53
2022-07-25T10:57:16.399Z,14.93
2022-07-25T10:59:47.453Z,14.33
2022-07-25T11:02:20.904Z,16.93
2022-07-25T11:05:02.915Z,13.97
2022-07-25T11:07:37.058Z,15.10
2022-07-25T11:10:12.275Z,13.90
2022-07-25T11:12:46.792Z,15.50
2022-07-25T11:15:25.784Z,14.70
2022-07-25T11:17:57.081Z,14.53
2022-07-25T11:20:33.265Z,15.27
2022-07-25T11:23:07.335Z,13.77
2022-07-25T11:25:43.692Z,14.17
2022-07-25T11:28:17.566Z,14.93
2022-07-25T11:30:54.220Z,14.30
2022-07-25T11:33:27.831Z,15.53
2022-07-25T11:36:05.180Z,14.40
2022-07-25T11:38:44.303Z,17.37
2022-07-25T11:41:18.427Z,13.10
2022-07-25T11:43:58.593Z,13.50
2022-07-25T11:46:47.279Z,13.00
2022-07-25T11:49:19.642Z,12.30
2022-07-25T11:51:58.259Z,11.87
2022-07-25T11:57:28.045Z,12.33
2022-07-25T12:00:02.972Z,11.20
2022-07-25T12:02:41.016Z,16.63
2022-07-25T12:05:20.777Z,10.90
2022-07-25T12:11:40.775Z,12.27
2022-07-25T12:17:42.100Z,11.20
2022-07-25T12:24:03.177Z,19.53
2022-07-25T12:27:24.646Z,10.70
2022-07-25T12:30:41.814Z,32.00
2022-07-25T12:36:15.129Z,9.60
2022-07-25T12:42:36.962Z,10.07
2022-07-25T12:45:57.924Z,10.17
2022-07-25T12:49:15.279Z,9.93
2022-07-25T12:54:48.896Z,10.10
2022-07-25T12:58:19.509Z,10.70
2022-07-25T13:00:50.747Z,12.13
2022-07-25T13:03:22.047Z,11.00
2022-07-25T13:06:21.259Z,10.97
2022-07-25T13:12:41.416Z,11.60
2022-07-25T13:18:42.356Z,10.80
2022-07-25T13:22:04.276Z,11.30
2022-07-25T13:28:03.388Z,10.90
2022-07-25T13:31:13.670Z,11.30
2022-07-25T13:34:31.080Z,12.07
2022-07-25T13:40:03.832Z,11.60
2022-07-25T13:46:24.210Z,11.70
2022-07-25T13:49:44.765Z,11.70
2022-07-25T13:53:05.301Z,36.43
2022-07-25T13:56:25.585Z,10.60
2022-07-25T13:59:43.283Z,54.97
2022-07-25T14:05:16.482Z,11.47
2022-07-25T14:11:38.408Z,15.93
2022-07-25T14:14:58.700Z,23.30
2022-07-25T14:18:19.150Z,14.17
2022-07-25T14:21:37.120Z,11.43
2022-07-25T14:27:10.010Z,28.57
2022-07-25T14:33:30.661Z,9.63
2022-07-25T14:36:50.894Z,10.47
2022-07-25T14:40:08.176Z,10.33
2022-07-25T14:45:41.742Z,9.43
2022-07-25T14:49:12.184Z,9.40
2022-07-25T14:52:31.157Z,12.33
2022-07-25T14:58:03.827Z,9.90
2022-07-25T15:04:25.433Z,8.97
2022-07-25T15:07:45.761Z,9.70
2022-07-25T15:11:03.198Z,8.63
2022-07-25T15:16:37.614Z,9.27
2022-07-25T15:22:57.930Z,8.10
2022-07-25T15:26:18.607Z,8.03
2022-07-25T15:29:38.622Z,7.20
2022-07-25T15:32:56.289Z,8.03
2022-07-25T15:38:29.435Z,6.33
2022-07-25T15:45:03.853Z,6.37
2022-07-25T15:48:31.552Z,5.83
2022-07-25T15:51:50.201Z,6.37
2022-07-25T15:57:22.706Z,6.60
2022-07-25T16:02:53.241Z,6.50
2022-07-25T16:06:18.677Z,7.27
2022-07-25T16:08:56.000Z,6.90
2022-07-25T16:15:14.802Z,5.50
2022-07-25T16:18:35.553Z,6.20
2022-07-25T16:21:53.299Z,6.40
2022-07-25T16:27:26.631Z,6.63
2022-07-25T16:33:47.544Z,6.33
2022-07-25T16:37:07.805Z,6.93
2022-07-25T16:39:45.810Z,8.10
2022-07-25T16:42:18.199Z,8.80
2022-07-25T16:44:57.420Z,7.47
2022-07-25T16:51:18.402Z,7.77
2022-07-25T16:54:39.387Z,7.57
2022-07-25T16:57:58.033Z,10.43
2022-07-25T17:03:31.261Z,9.47
2022-07-25T17:09:51.704Z,8.83
2022-07-25T17:12:32.502Z,9.63
2022-07-25T17:15:13.959Z,9.60
2022-07-25T17:17:51.416Z,9.87
2022-07-25T17:20:30.038Z,10.13
2022-07-25T17:26:02.836Z,10.47
2022-07-25T17:29:02.986Z,10.80
2022-07-25T17:31:33.680Z,10.23
2022-07-25T17:34:02.013Z,11.63
2022-07-25T17:36:30.393Z,10.90
2022-07-25T17:38:58.580Z,10.63
2022-07-25T17:41:26.706Z,10.60
2022-07-25T17:43:54.821Z,12.40
2022-07-25T17:46:23.171Z,11.87
2022-07-25T17:48:52.770Z,11.60
2022-07-25T17:51:21.056Z,11.27
2022-07-25T17:53:49.171Z,11.53
2022-07-25T17:56:17.470Z,11.23
2022-07-25T17:58:45.691Z,12.07
2022-07-25T18:01:13.870Z,11.50
2022-07-25T18:03:42.073Z,11.70
2022-07-25T18:06:11.974Z,12.03
2022-07-25T18:08:40.178Z,11.37
2022-07-25T18:11:08.364Z,10.97
2022-07-25T18:13:36.670Z,13.33
2022-07-25T18:16:05.065Z,13.03
2022-07-25T18:18:33.310Z,12.83
2022-07-25T18:21:01.514Z,12.97
2022-07-25T18:23:31.021Z,11.40
2022-07-25T18:25:59.283Z,13.00
2022-07-25T18:28:27.554Z,11.77
2022-07-25T18:30:55.788Z,10.97
2022-07-25T18:33:24.009Z,12.10
2022-07-25T18:35:52.438Z,10.97
2022-07-25T18:38:20.887Z,11.20
2022-07-25T18:41:06.481Z,10.90
2022-07-25T18:43:38.683Z,10.23
2022-07-25T18:46:07.527Z,10.97
2022-07-25T18:48:38.022Z,11.13
2022-07-25T18:51:06.503Z,10.87
2022-07-25T18:53:34.924Z,10.93
2022-07-25T18:56:06.039Z,10.77
2022-07-25T18:58:34.627Z,11.17
2022-07-25T19:01:03.478Z,11.47
2022-07-25T19:03:33.958Z,10.70
2022-07-25T19:06:03.587Z,11.63
2022-07-25T19:08:32.193Z,11.63
2022-07-25T19:11:00.441Z,11.33
2022-07-25T19:13:48.986Z,10.47
2022-07-25T19:16:19.125Z,10.77
2022-07-25T19:18:47.924Z,11.83
2022-07-25T19:21:16.922Z,11.70
2022-07-25T19:23:50.458Z,12.00
2022-07-25T19:26:19.641Z,10.90
2022-07-25T19:28:50.225Z,11.23
2022-07-25T19:31:18.739Z,12.37
2022-07-25T19:33:47.228Z,12.10
2022-07-25T19:36:16.312Z,11.50
2022-07-25T19:38:45.069Z,10.90
2022-07-25T19:41:14.483Z,10.87
2022-07-25T19:43:42.894Z,12.17
2022-07-25T19:46:12.562Z,11.60
2022-07-25T19:48:40.962Z,12.57
2022-07-25T19:51:09.340Z,12.17
2022-07-25T19:53:38.254Z,10.93
2022-07-25T19:56:08.405Z,12.30
2022-07-25T19:58:38.887Z,12.27
2022-07-25T20:01:08.893Z,12.50
2022-07-25T20:03:38.646Z,11.27
2022-07-25T20:06:08.554Z,12.50
2022-07-25T20:08:39.461Z,13.47
2022-07-25T20:11:08.379Z,12.00
2022-07-25T20:13:36.654Z,11.10
2022-07-25T20:16:05.871Z,12.23
2022-07-25T20:18:34.147Z,12.27
2022-07-25T20:21:03.862Z,11.10
2022-07-25T20:23:32.109Z,11.67
2022-07-25T20:26:02.308Z,12.07
2022-07-25T20:28:30.858Z,12.73
2022-07-25T20:30:59.437Z,11.50
2022-07-25T20:33:27.963Z,11.97
2022-07-25T20:35:56.178Z,11.77
2022-07-25T20:38:28.365Z,11.90
2022-07-25T20:40:57.093Z,12.77
2022-07-25T20:43:25.517Z,11.87
2022-07-25T20:45:55.696Z,11.70
2022-07-25T20:48:24.111Z,15.23
2022-07-25T20:50:52.292Z,14.57
2022-07-25T20:53:20.919Z,11.63
2022-07-25T20:55:50.479Z,12.60
2022-07-25T20:58:18.724Z,12.47
2022-07-25T21:00:47.607Z,11.60
2022-07-25T21:03:16.797Z,11.50
2022-07-25T21:05:44.931Z,10.93
2022-07-25T21:08:13.055Z,9.43
2022-07-25T21:10:41.201Z,11.47
2022-07-25T21:13:10.747Z,11.37
2022-07-25T21:15:38.948Z,11.77
2022-07-25T21:18:07.284Z,12.80
2022-07-25T21:20:37.371Z,12.87
2022-07-25T21:23:06.623Z,12.20
2022-07-25T21:25:34.801Z,12.70
2022-07-25T21:28:03.028Z,12.53
2022-07-25T21:30:32.602Z,13.40
2022-07-25T21:33:00.788Z,12.20
2022-07-25T21:35:29.172Z,12.07
2022-07-25T21:37:58.645Z,10.60
2022-07-25T21:40:27.162Z,12.00
2022-07-25T21:42:55.396Z,12.13
2022-07-25T21:45:23.840Z,13.10
2022-07-25T21:47:53.525Z,12.47
2022-07-25T21:50:42.185Z,11.37
2022-07-25T21:53:14.435Z,11.37
2022-07-25T21:55:42.702Z,11.63
2022-07-25T21:58:10.808Z,11.40
2022-07-25T22:00:41.804Z,11.87
2022-07-25T22:03:15.514Z,10.07
2022-07-25T22:05:43.770Z,10.80
2022-07-25T22:08:11.898Z,10.67
2022-07-25T22:10:40.057Z,11.33
2022-07-25T22:13:12.616Z,11.80
2022-07-25T22:15:41.165Z,10.90
2022-07-25T22:18:09.608Z,10.93
2022-07-25T22:20:39.320Z,12.50
2022-07-25T22:23:08.403Z,9.80
2022-07-25T22:25:36.599Z,12.87
2022-07-25T22:28:04.841Z,11.50
2022-07-25T22:30:34.773Z,9.60
2022-07-25T22:33:02.887Z,8.67
2022-07-25T22:35:31.160Z,11.17
2022-07-25T22:38:00.698Z,10.20
2022-07-25T22:40:28.842Z,11.03
2022-07-25T22:42:56.960Z,10.47
2022-07-25T22:45:25.156Z,9.10
2022-07-25T22:47:53.405Z,10.10
2022-07-25T22:50:21.733Z,10.00
2022-07-25T22:52:49.898Z,10.40
2022-07-25T22:55:19.408Z,11.40
2022-07-25T22:57:49.666Z,11.37
2022-07-25T23:00:18.672Z,11.00
2022-07-25T23:02:46.885Z,9.77
2022-07-25T23:05:16.133Z,9.53
2022-07-25T23:07:44.234Z,10.77
2022-07-25T23:10:12.529Z,10.60
2022-07-25T23:12:42.100Z,8.90
2022-07-25T23:15:10.607Z,10.07
2022-07-25T23:17:38.789Z,12.13
2022-07-25T23:20:08.207Z,11.33
2022-07-25T23:22:36.459Z,9.87
2022-07-25T23:25:05.491Z,9.83
2022-07-25T23:27:34.895Z,9.60
2022-07-25T23:30:05.772Z,10.20
2022-07-25T23:32:34.109Z,8.87
2022-07-25T23:35:02.356Z,9.53
2022-07-25T23:37:30.507Z,9.30
2022-07-25T23:39:58.588Z,8.93
2022-07-25T23:42:26.878Z,8.87
2022-07-25T23:44:54.990Z,11.10
2022-07-25T23:47:36.778Z,8.90
2022-07-25T23:50:09.489Z,8.50
2022-07-25T23:52:37.610Z,8.13
2022-07-25T23:55:06.503Z,7.73
2022-07-25T23:57:35.244Z,8.40
